Time;durP1;ratioP1;P1;durP2;ratioP2;P2;SDS_P1;SDS_P2;PMS_P1;PMS_P2;Temp;Humidity;BMP_temperature;BMP_pressure;BME280_temperature;BME280_humidity;BME280_pressure;Samples;Min_cycle;Max_cycle;Signal;HPM_P1;HPM_P2
2023/03/26 00:02:12;;;;;;;1.90;1.80;;;22.30;68.50;;;;;;4995525;28;20452;-83
2023/03/26 00:04:41;;;;;;;2.17;1.93;;;22.20;68.40;;;;;;4995774;28;20439;-83
2023/03/26 00:07:09;;;;;;;2.80;1.97;;;22.20;68.40;;;;;;4995386;28;20986;-94
2023/03/26 00:09:36;;;;;;;2.03;1.83;;;22.30;68.50;;;;;;4995321;28;20946;-83
2023/03/26 00:12:04;;;;;;;2.13;1.87;;;22.20;68.30;;;;;;4995324;28;20451;-84
2023/03/26 00:14:34;;;;;;;2.40;1.90;;;22.20;68.40;;;;;;4995075;28;21014;-83
2023/03/26 00:17:01;;;;;;;1.93;1.70;;;22.20;68.40;;;;;;4995590;28;20440;-83
2023/03/26 00:19:29;;;;;;;2.93;1.80;;;22.20;68.40;;;;;;4995200;28;20436;-83
2023/03/26 00:21:56;;;;;;;1.80;1.70;;;22.10;68.30;;;;;;4995128;28;20448;-94
2023/03/26 00:24:28;;;;;;;2.73;2.30;;;22.10;68.30;;;;;;4995129;28;20452;-83
2023/03/26 00:26:55;;;;;;;2.10;1.67;;;22.10;68.30;;;;;;4995150;28;20436;-83
2023/03/26 00:29:23;;;;;;;2.30;2.00;;;22.10;68.20;;;;;;4994979;28;20843;-83
2023/03/26 00:31:51;;;;;;;1.70;1.60;;;22.10;68.20;;;;;;4995003;28;20452;-83
2023/03/26 00:34:18;;;;;;;2.33;1.70;;;22.10;68.20;;;;;;4994596;28;21045;-83
2023/03/26 00:36:45;;;;;;;2.10;1.53;;;22.10;68.20;;;;;;4995020;28;20444;-83
2023/03/26 00:39:12;;;;;;;4.83;1.80;;;22.10;68.20;;;;;;4994862;28;20444;-84
2023/03/26 00:41:41;;;;;;;1.93;1.73;;;22.10;68.20;;;;;;4994688;28;20441;-83
2023/03/26 00:44:09;;;;;;;1.97;1.80;;;22.10;68.20;;;;;;4994513;28;20460;-83
2023/03/26 00:46:36;;;;;;;2.13;1.60;;;22.10;68.20;;;;;;4995003;28;20440;-94
2023/03/26 00:49:04;;;;;;;2.40;1.97;;;22.10;68.20;;;;;;4995146;28;20440;-90
2023/03/26 00:51:32;;;;;;;2.40;1.50;;;22.10;68.20;;;;;;4995025;28;20441;-94
2023/03/26 00:53:59;;;;;;;2.40;1.70;;;22.10;68.20;;;;;;4994728;28;20905;-84
2023/03/26 00:56:26;;;;;;;2.63;1.93;;;22.00;68.00;;;;;;4995036;28;20448;-88
2023/03/26 00:58:53;;;;;;;1.87;1.57;;;22.00;68.00;;;;;;4994921;28;20476;-94
2023/03/26 01:01:25;;;;;;;1.93;1.73;;;22.00;68.00;;;;;;4994947;28;20454;-91
2023/03/26 01:03:57;;;;;;;3.10;1.70;;;22.00;68.00;;;;;;4994634;28;20451;-93
2023/03/26 01:06:31;;;;;;;1.93;1.50;;;22.20;68.30;;;;;;4994489;28;20444;-83
2023/03/26 01:09:03;;;;;;;1.97;1.77;;;22.00;68.00;;;;;;4994705;28;20440;-92
2023/03/26 01:11:32;;;;;;;2.50;1.90;;;22.00;68.00;;;;;;4994599;28;20436;-84
2023/03/26 01:14:05;;;;;;;2.77;1.80;;;22.00;68.00;;;;;;4994695;28;20492;-93
2023/03/26 01:16:37;;;;;;;2.10;1.90;;;22.00;68.00;;;;;;4994810;28;20436;-93
2023/03/26 01:19:09;;;;;;;2.00;1.70;;;21.90;67.90;;;;;;4994759;28;20440;-90
2023/03/26 01:21:38;;;;;;;2.67;1.90;;;21.90;67.90;;;;;;4994716;28;20523;-83
2023/03/26 01:24:08;;;;;;;3.97;2.27;;;21.90;67.90;;;;;;4994661;28;20859;-94
2023/03/26 01:26:51;;;;;;;1.97;1.50;;;21.90;67.90;;;;;;4994517;28;20449;-94
2023/03/26 01:29:22;;;;;;;2.57;1.83;;;21.90;67.90;;;;;;4994227;28;20471;-90
2023/03/26 01:32:00;;;;;;;1.90;1.73;;;21.90;67.90;;;;;;4994563;28;20434;-94
2023/03/26 01:34:34;;;;;;;2.10;1.43;;;21.90;67.90;;;;;;4994398;28;20487;-94
2023/03/26 01:37:15;;;;;;;1.57;1.47;;;21.90;67.90;;;;;;4994505;28;20439;-83
2023/03/26 01:39:52;;;;;;;1.70;1.40;;;21.90;67.90;;;;;;4994347;28;20476;-87
2023/03/26 01:42:26;;;;;;;2.17;1.90;;;21.90;67.90;;;;;;4994480;28;20432;-84
2023/03/26 01:44:57;;;;;;;2.00;1.57;;;21.80;67.80;;;;;;4994420;28;20819;-92
2023/03/26 01:47:25;;;;;;;2.07;1.87;;;21.90;67.90;;;;;;4995170;28;20439;-94
2023/03/26 01:49:51;;;;;;;4.37;2.70;;;21.90;67.80;;;;;;5000805;28;20450;-85
2023/03/26 01:52:24;;;;;;;1.20;1.10;;;22.00;67.90;;;;;;5000702;28;20448;-91
2023/03/26 01:54:53;;;;;;;1.60;1.50;;;21.80;67.70;;;;;;5000634;28;20444;-83
2023/03/26 01:57:26;;;;;;;4.47;1.80;;;21.80;67.70;;;;;;5000495;28;20775;-83
2023/03/26 02:00:11;;;;;;;2.27;1.83;;;21.80;67.60;;;;;;5000498;28;20440;-94
2023/03/26 02:02:49;;;;;;;4.47;1.67;;;21.80;67.60;;;;;;5000577;28;20443;-93
2023/03/26 02:05:21;;;;;;;2.43;1.60;;;21.80;67.70;;;;;;5000458;28;20935;-89
2023/03/26 02:07:52;;;;;;;2.57;1.87;;;21.80;67.60;;;;;;5000612;28;20450;-89
2023/03/26 02:10:26;;;;;;;1.60;1.50;;;21.80;67.70;;;;;;5000456;28;20451;-88
2023/03/26 02:12:53;;;;;;;2.17;1.57;;;21.80;67.60;;;;;;5000616;28;20468;-85
2023/03/26 02:15:21;;;;;;;2.00;1.47;;;21.80;67.60;;;;;;5000418;28;20468;-94
2023/03/26 02:17:48;;;;;;;2.00;1.20;;;21.80;67.60;;;;;;5000369;28;20481;-92
2023/03/26 02:20:17;;;;;;;1.77;1.47;;;21.80;67.60;;;;;;5000357;28;20440;-94
2023/03/26 02:22:46;;;;;;;2.63;1.60;;;21.80;67.60;;;;;;5000209;28;20444;-92
2023/03/26 02:25:15;;;;;;;1.53;1.43;;;21.70;67.60;;;;;;5000458;28;20477;-93
2023/03/26 02:27:44;;;;;;;2.70;1.50;;;21.70;67.40;;;;;;5000232;28;20456;-93
2023/03/26 02:30:13;;;;;;;2.20;1.47;;;21.70;67.50;;;;;;5000367;28;20452;-94
2023/03/26 02:32:42;;;;;;;2.60;1.50;;;21.70;67.40;;;;;;5000294;28;20810;-91
2023/03/26 02:35:10;;;;;;;1.80;1.13;;;21.70;67.40;;;;;;5000103;28;20977;-83
2023/03/26 02:37:37;;;;;;;1.57;1.40;;;21.70;67.40;;;;;;5000203;28;20484;-86
2023/03/26 02:40:09;;;;;;;2.27;1.60;;;21.70;67.40;;;;;;5000484;28;20465;-95
2023/03/26 02:42:36;;;;;;;1.57;1.33;;;21.70;67.40;;;;;;5000338;28;20439;-94
2023/03/26 02:45:05;;;;;;;2.47;1.40;;;21.70;67.40;;;;;;5000329;28;20461;-94
2023/03/26 02:47:32;;;;;;;2.03;1.50;;;21.70;67.40;;;;;;5000134;28;20437;-94
2023/03/26 02:50:00;;;;;;;2.63;1.50;;;21.70;67.30;;;;;;5000050;28;20498;-94
2023/03/26 02:52:27;;;;;;;2.03;1.73;;;21.70;67.40;;;;;;5000413;28;20440;-92
2023/03/26 02:54:54;;;;;;;1.60;1.13;;;21.70;67.40;;;;;;4999798;28;20495;-94
2023/03/26 02:57:21;;;;;;;3.80;1.40;;;21.70;67.40;;;;;;5000439;28;20443;-93
2023/03/26 02:59:49;;;;;;;2.57;1.37;;;21.70;67.40;;;;;;4997165;28;20440;-93
2023/03/26 03:02:18;;;;;;;2.60;1.40;;;21.70;67.30;;;;;;4997685;28;20440;-93
2023/03/26 03:04:45;;;;;;;2.03;1.50;;;21.70;67.30;;;;;;4996886;28;20444;-94
2023/03/26 03:07:13;;;;;;;1.87;1.40;;;21.70;67.30;;;;;;4996791;28;21016;-92
2023/03/26 03:09:40;;;;;;;1.70;1.50;;;21.60;67.20;;;;;;4996969;28;20518;-93
2023/03/26 03:12:07;;;;;;;2.17;1.50;;;21.60;67.20;;;;;;4996839;28;20441;-94
2023/03/26 03:14:34;;;;;;;1.70;1.20;;;21.60;67.20;;;;;;4996621;28;20517;-94
2023/03/26 03:17:01;;;;;;;1.70;1.40;;;21.60;67.10;;;;;;4996570;28;20487;-94
2023/03/26 03:19:29;;;;;;;1.50;1.40;;;21.60;67.20;;;;;;4996639;28;20444;-95
2023/03/26 03:21:55;;;;;;;2.07;1.33;;;21.60;67.20;;;;;;4996911;28;20444;-83
2023/03/26 03:24:22;;;;;;;3.00;1.60;;;21.60;67.20;;;;;;4996758;28;20479;-93
2023/03/26 03:26:53;;;;;;;1.90;1.50;;;21.60;67.20;;;;;;4996457;28;20969;-91
2023/03/26 03:29:20;;;;;;;3.23;1.70;;;21.60;67.10;;;;;;4996636;28;20484;-93
2023/03/26 03:31:54;;;;;;;1.73;1.37;;;21.60;67.10;;;;;;4997443;28;20448;-94
2023/03/26 03:34:22;;;;;;;1.23;1.00;;;21.60;67.10;;;;;;4997068;28;20487;-90
2023/03/26 03:36:50;;;;;;;1.77;1.30;;;21.60;67.10;;;;;;4997060;28;20921;-90
2023/03/26 03:39:17;;;;;;;1.90;1.40;;;21.60;67.10;;;;;;4996543;28;20444;-93
2023/03/26 03:41:43;;;;;;;1.50;1.30;;;21.60;67.20;;;;;;4996722;28;20440;-94
2023/03/26 03:44:10;;;;;;;2.40;1.60;;;21.60;67.10;;;;;;4996671;28;20468;-87
2023/03/26 03:46:37;;;;;;;2.13;1.40;;;21.60;67.10;;;;;;4996531;28;20444;-94
2023/03/26 03:49:04;;;;;;;1.80;1.20;;;21.60;67.10;;;;;;4996560;28;20456;-94
2023/03/26 03:51:31;;;;;;;1.80;1.20;;;21.60;67.10;;;;;;4996494;28;20436;-86
2023/03/26 03:53:59;;;;;;;3.00;1.63;;;21.60;67.10;;;;;;4996148;28;20478;-93
2023/03/26 03:56:26;;;;;;;2.20;1.67;;;21.60;67.10;;;;;;4996357;28;20453;-90
2023/03/26 03:58:52;;;;;;;2.57;1.63;;;21.60;67.10;;;;;;4996361;28;20442;-93
2023/03/26 04:01:21;;;;;;;2.17;1.43;;;21.60;67.10;;;;;;4996324;28;20448;-93
2023/03/26 04:03:48;;;;;;;1.80;1.20;;;21.60;67.00;;;;;;4996491;28;20491;-94
2023/03/26 04:06:17;;;;;;;2.60;2.10;;;21.60;67.00;;;;;;4996223;28;20449;-91
2023/03/26 04:08:44;;;;;;;3.13;1.57;;;21.50;66.90;;;;;;4996341;28;20454;-94
2023/03/26 04:11:13;;;;;;;1.43;1.10;;;21.50;66.90;;;;;;5016212;28;20495;-83
2023/03/26 04:13:39;;;;;;;2.00;1.50;;;21.50;66.90;;;;;;5016696;28;20551;-83
2023/03/26 04:16:07;;;;;;;1.90;1.30;;;21.50;67.70;;;;;;4996515;28;20440;-94
2023/03/26 04:18:35;;;;;;;1.60;1.20;;;21.50;66.90;;;;;;4995324;28;20827;-93
2023/03/26 04:21:02;;;;;;;1.93;1.47;;;21.50;66.90;;;;;;4996010;28;20445;-92
2023/03/26 04:23:29;;;;;;;2.63;1.70;;;21.50;67.70;;;;;;4996101;28;21084;-83
2023/03/26 04:25:57;;;;;;;2.20;1.33;;;21.50;66.80;;;;;;4995843;28;20444;-84
2023/03/26 04:28:30;;;;;;;2.00;1.50;;;21.50;66.90;;;;;;4995735;28;21010;-88
2023/03/26 04:31:00;;;;;;;2.20;1.47;;;21.50;66.90;;;;;;4995777;28;20514;-94
2023/03/26 04:33:29;;;;;;;2.07;1.43;;;21.50;66.80;;;;;;4995262;28;20440;-83
2023/03/26 04:36:00;;;;;;;1.77;1.67;;;21.50;66.90;;;;;;4995834;28;20444;-83
2023/03/26 04:38:27;;;;;;;2.40;1.10;;;21.50;66.80;;;;;;4995499;28;20787;-84
2023/03/26 04:40:58;;;;;;;2.37;1.40;;;21.50;66.80;;;;;;4995383;28;20948;-83
2023/03/26 04:43:29;;;;;;;2.00;1.50;;;21.50;66.80;;;;;;4995542;28;20446;-82
2023/03/26 04:45:56;;;;;;;1.60;1.20;;;21.50;66.80;;;;;;4995333;28;20460;-83
2023/03/26 04:48:22;;;;;;;2.23;1.50;;;21.50;66.70;;;;;;4995211;28;20447;-91
2023/03/26 04:50:50;;;;;;;2.50;1.50;;;21.50;66.70;;;;;;4994944;28;20558;-83
2023/03/26 04:53:20;;;;;;;2.17;1.40;;;21.50;66.80;;;;;;4995122;28;20440;-83
2023/03/26 04:55:53;;;;;;;1.87;1.20;;;21.40;66.60;;;;;;4995144;28;20475;-83
2023/03/26 04:58:20;;;;;;;2.20;1.43;;;21.60;66.80;;;;;;4995179;28;20514;-84
2023/03/26 05:00:48;;;;;;;2.20;1.20;;;21.40;66.60;;;;;;4995110;28;20801;-93
2023/03/26 05:03:15;;;;;;;2.93;1.37;;;21.40;66.60;;;;;;4994988;28;20537;-83
2023/03/26 05:05:42;;;;;;;3.30;1.40;;;21.40;66.60;;;;;;4995013;28;20971;-82
2023/03/26 05:08:09;;;;;;;3.03;1.50;;;21.40;66.60;;;;;;4995014;28;20447;-82
2023/03/26 05:10:36;;;;;;;1.40;1.17;;;21.40;66.60;;;;;;4994901;28;20449;-82
2023/03/26 05:13:03;;;;;;;1.87;1.30;;;21.40;66.60;;;;;;4994797;28;20444;-82
2023/03/26 05:15:29;;;;;;;1.47;1.10;;;21.40;66.60;;;;;;4994370;28;20495;-82
2023/03/26 05:17:57;;;;;;;2.17;1.30;;;21.40;66.60;;;;;;4994338;28;20472;-82
2023/03/26 05:20:28;;;;;;;1.90;1.40;;;21.40;66.60;;;;;;4994433;28;20442;-82
2023/03/26 05:22:55;;;;;;;1.80;1.30;;;21.40;66.60;;;;;;4993740;28;20978;-90
2023/03/26 05:25:23;;;;;;;2.57;1.83;;;21.40;66.50;;;;;;4994590;28;20801;-86
2023/03/26 05:27:49;;;;;;;3.33;1.67;;;21.40;66.50;;;;;;4994356;28;20832;-86
2023/03/26 05:30:19;;;;;;;1.47;1.27;;;21.40;66.50;;;;;;4994283;28;20965;-83
2023/03/26 05:32:47;;;;;;;2.47;1.33;;;21.40;66.50;;;;;;4994447;28;20490;-83
2023/03/26 05:35:16;;;;;;;2.57;1.20;;;21.40;66.50;;;;;;4994689;28;20496;-82
2023/03/26 05:37:44;;;;;;;2.30;1.63;;;21.40;66.50;;;;;;4994821;28;20449;-82
2023/03/26 05:40:13;;;;;;;1.43;1.23;;;21.40;66.50;;;;;;4994720;28;20448;-82
2023/03/26 05:42:41;;;;;;;6.27;1.60;;;21.40;66.50;;;;;;4994644;28;20440;-83
2023/03/26 05:45:10;;;;;;;3.00;1.73;;;21.40;66.50;;;;;;4994578;28;20487;-88
2023/03/26 05:47:37;;;;;;;1.77;1.30;;;21.40;66.50;;;;;;4994521;28;20449;-83
2023/03/26 05:50:06;;;;;;;2.30;1.23;;;21.40;66.50;;;;;;4994486;28;20440;-83
2023/03/26 05:52:34;;;;;;;2.90;1.50;;;21.40;66.50;;;;;;4994313;28;20447;-83
2023/03/26 05:55:01;;;;;;;1.97;1.30;;;21.50;66.60;;;;;;4994058;28;20495;-84
2023/03/26 05:57:29;;;;;;;2.80;1.50;;;21.40;66.40;;;;;;4994199;28;20455;-90
2023/03/26 05:59:56;;;;;;;1.83;1.30;;;21.40;66.50;;;;;;4994417;28;20440;-83
2023/03/26 06:02:23;;;;;;;2.03;1.43;;;21.30;66.30;;;;;;4994112;28;20432;-91
2023/03/26 06:04:51;;;;;;;1.53;1.20;;;21.50;66.60;;;;;;4994458;28;20436;-83
2023/03/26 06:07:18;;;;;;;1.97;1.27;;;21.30;66.40;;;;;;4994321;28;20531;-83
2023/03/26 06:09:47;;;;;;;1.60;1.23;;;21.30;66.40;;;;;;4994637;28;20447;-82
2023/03/26 06:12:14;;;;;;;5.00;1.47;;;21.30;66.30;;;;;;4994880;28;20446;-83
2023/03/26 06:14:42;;;;;;;1.50;1.17;;;21.50;66.50;;;;;;4994666;28;20495;-93
2023/03/26 06:17:09;;;;;;;2.07;1.40;;;21.30;66.30;;;;;;4994531;28;20447;-83
2023/03/26 06:19:36;;;;;;;2.63;1.60;;;21.30;66.30;;;;;;4993980;28;20444;-83
2023/03/26 06:22:04;;;;;;;2.07;1.17;;;21.50;66.50;;;;;;4994084;28;20818;-93
2023/03/26 06:24:31;;;;;;;1.80;1.43;;;21.30;66.30;;;;;;4993681;28;20451;-91
2023/03/26 06:26:59;;;;;;;1.63;1.20;;;21.30;66.20;;;;;;4994189;28;20451;-82
2023/03/26 06:29:26;;;;;;;3.03;1.70;;;21.30;66.30;;;;;;4993998;28;20567;-83
2023/03/26 06:31:53;;;;;;;1.43;1.10;;;21.30;66.30;;;;;;4993732;28;20436;-82
2023/03/26 06:34:20;;;;;;;2.13;1.30;;;21.30;66.30;;;;;;4995270;28;20498;-82
2023/03/26 06:36:51;;;;;;;1.70;1.37;;;21.30;66.30;;;;;;4997538;28;20460;-82
2023/03/26 06:39:18;;;;;;;2.27;1.30;;;21.30;66.30;;;;;;4998929;28;20451;-93
2023/03/26 06:41:45;;;;;;;2.90;1.53;;;21.30;66.20;;;;;;4999365;28;20443;-82
2023/03/26 06:44:13;;;;;;;1.63;1.20;;;21.30;66.20;;;;;;5000054;28;20487;-82
2023/03/26 06:46:40;;;;;;;1.53;1.00;;;21.30;66.20;;;;;;5014135;28;20536;-82
2023/03/26 06:49:06;;;;;;;1.93;1.30;;;21.30;66.20;;;;;;5013033;28;20439;-84
2023/03/26 06:51:33;;;;;;;1.80;1.27;;;21.30;66.20;;;;;;4997304;28;20531;-93
2023/03/26 06:54:00;;;;;;;2.33;1.60;;;21.30;66.20;;;;;;4996997;28;20484;-82
2023/03/26 06:56:27;;;;;;;2.20;1.23;;;21.30;66.20;;;;;;4997412;28;20440;-82
2023/03/26 06:58:54;;;;;;;1.90;1.37;;;21.30;66.20;;;;;;4997160;28;20440;-94
2023/03/26 07:01:22;;;;;;;1.53;1.43;;;21.30;66.20;;;;;;4997218;28;20437;-83
2023/03/26 07:03:49;;;;;;;1.50;1.10;;;21.30;66.20;;;;;;4997169;28;20531;-83
2023/03/26 07:06:15;;;;;;;2.00;1.40;;;21.30;66.20;;;;;;4999541;28;20436;-83
2023/03/26 07:08:42;;;;;;;2.00;1.40;;;21.40;66.30;;;;;;5000513;28;20534;-82
2023/03/26 07:11:09;;;;;;;1.97;1.53;;;21.30;66.10;;;;;;4997918;28;20444;-83
2023/03/26 07:13:36;;;;;;;1.70;1.33;;;21.30;66.20;;;;;;5001026;28;20440;-81
2023/03/26 07:16:03;;;;;;;2.40;1.13;;;21.20;66.10;;;;;;4998269;28;20519;-82
2023/03/26 07:18:31;;;;;;;1.93;1.37;;;21.30;66.20;;;;;;4997947;28;20799;-82
2023/03/26 07:20:59;;;;;;;1.90;1.30;;;21.30;66.10;;;;;;4997161;28;20527;-82
2023/03/26 07:23:26;;;;;;;1.67;1.00;;;21.20;66.00;;;;;;4999762;28;20444;-84
2023/03/26 07:25:54;;;;;;;1.60;1.30;;;21.20;66.00;;;;;;4996917;28;20783;-82
2023/03/26 07:28:29;;;;;;;2.10;1.20;;;21.20;66.00;;;;;;4997133;28;20482;-94
2023/03/26 07:31:03;;;;;;;1.80;1.20;;;21.20;66.00;;;;;;4997312;28;20867;-83
2023/03/26 07:33:37;;;;;;;1.90;1.40;;;21.20;66.90;;;;;;4996829;28;20944;-82
2023/03/26 07:36:16;;;;;;;2.10;1.07;;;21.20;66.00;;;;;;4996406;28;20484;-82
2023/03/26 07:39:04;;;;;;;1.40;1.10;;;21.20;66.00;;;;;;4996566;28;20451;-93
2023/03/26 07:41:38;;;;;;;2.07;1.60;;;21.20;66.00;;;;;;4993573;28;20458;-82
2023/03/26 07:44:27;;;;;;;2.07;1.20;;;21.20;66.00;;;;;;4996168;28;20457;-82
2023/03/26 07:46:54;;;;;;;1.50;1.20;;;21.20;66.00;;;;;;4995623;28;20444;-82
2023/03/26 07:49:23;;;;;;;1.60;1.00;;;21.20;66.00;;;;;;4996454;28;20518;-82
2023/03/26 07:51:50;;;;;;;1.67;1.20;;;21.20;66.00;;;;;;4996209;28;20813;-82
2023/03/26 07:54:17;;;;;;;1.50;0.90;;;21.20;66.10;;;;;;4996063;28;20445;-82
2023/03/26 07:56:51;;;;;;;1.80;1.40;;;21.20;66.00;;;;;;4996338;28;20773;-83
2023/03/26 07:59:25;;;;;;;5.40;1.40;;;21.20;65.90;;;;;;4996223;28;20453;-83
2023/03/26 08:02:20;;;;;;;5.80;1.70;;;21.30;66.10;;;;;;4996089;28;20444;-82
2023/03/26 08:04:59;;;;;;;2.80;1.80;;;21.30;65.40;;;;;;4995854;28;20474;-82
2023/03/26 08:07:33;;;;;;;9.70;2.30;;;21.30;65.90;;;;;;4995909;28;20965;-83
2023/03/26 08:10:08;;;;;;;2.00;1.43;;;21.30;66.00;;;;;;4995928;28;20450;-81
2023/03/26 08:12:44;;;;;;;6.60;3.17;;;21.40;66.10;;;;;;4995782;28;20446;-82
2023/03/26 08:15:18;;;;;;;17.20;8.73;;;21.30;66.10;;;;;;4995713;28;20515;-89
2023/03/26 08:17:51;;;;;;;10.83;6.60;;;21.30;66.10;;;;;;4996143;28;20454;-92
2023/03/26 08:20:30;;;;;;;16.53;9.10;;;21.30;66.10;;;;;;4995865;28;20959;-89
2023/03/26 08:23:05;;;;;;;16.30;10.53;;;21.30;66.10;;;;;;4995965;28;20935;-82
2023/03/26 08:25:53;;;;;;;17.70;10.33;;;21.30;66.10;;;;;;4995625;28;20507;-83
2023/03/26 08:28:36;;;;;;;17.67;11.27;;;21.30;66.00;;;;;;4995464;28;20478;-82
2023/03/26 08:31:04;;;;;;;25.23;14.37;;;21.30;66.00;;;;;;4995360;28;20440;-83
2023/03/26 08:33:31;;;;;;;27.60;16.10;;;21.30;66.10;;;;;;4995683;28;20475;-83
2023/03/26 08:35:59;;;;;;;26.80;17.10;;;21.30;66.10;;;;;;4995419;28;20584;-92
2023/03/26 08:38:26;;;;;;;24.70;15.57;;;21.30;66.10;;;;;;4995661;28;20436;-91
2023/03/26 08:41:15;;;;;;;31.07;17.00;;;21.30;66.20;;;;;;4995448;28;20522;-83
2023/03/26 08:44:15;;;;;;;24.40;16.20;;;21.30;66.10;;;;;;4995311;28;20451;-82
2023/03/26 08:47:08;;;;;;;25.00;16.50;;;21.30;66.20;;;;;;4995473;28;20445;-86
2023/03/26 08:50:05;;;;;;;25.40;15.47;;;21.30;66.40;;;;;;4995017;28;20440;-88
2023/03/26 08:53:06;;;;;;;27.47;16.53;;;21.30;66.30;;;;;;4995066;28;20454;-86
2023/03/26 08:55:47;;;;;;;26.90;17.10;;;21.40;66.30;;;;;;4995146;28;21044;-93
2023/03/26 08:58:50;;;;;;;27.10;16.60;;;21.30;66.40;;;;;;4993822;28;20436;-83
2023/03/26 09:01:52;;;;;;;28.27;17.07;;;21.30;67.30;;;;;;4995425;28;20436;-83
2023/03/26 09:04:40;;;;;;;31.07;16.73;;;21.30;66.50;;;;;;4964496;28;20439;-85
2023/03/26 09:07:40;;;;;;;34.57;17.90;;;21.30;66.80;;;;;;4993333;28;20517;-85
2023/03/26 09:10:32;;;;;;;24.40;15.60;;;21.40;66.80;;;;;;4994072;28;20455;-87
2023/03/26 09:13:36;;;;;;;24.97;14.80;;;21.30;66.60;;;;;;4993895;28;20452;-81
2023/03/26 09:16:27;;;;;;;17.70;12.07;;;21.30;66.60;;;;;;4993761;28;20492;-80
2023/03/26 09:19:15;;;;;;;17.20;8.40;;;21.30;65.70;;;;;;4998697;28;20436;-79
2023/03/26 09:22:21;;;;;;;20.93;10.83;;;21.20;64.40;;;;;;5010973;28;20456;-81
2023/03/26 09:25:25;;;;;;;18.13;12.13;;;21.20;65.50;;;;;;4963975;28;20527;-90
2023/03/26 09:28:26;;;;;;;15.93;11.23;;;21.30;66.50;;;;;;4994458;28;21002;-83
2023/03/26 09:31:21;;;;;;;18.20;11.20;;;21.20;66.30;;;;;;4994212;28;20443;-93
2023/03/26 09:33:58;;;;;;;16.70;11.00;;;21.20;66.30;;;;;;4994298;28;20448;-88
2023/03/26 09:36:56;;;;;;;17.50;12.07;;;21.20;66.20;;;;;;4993883;28;20487;-86
2023/03/26 09:39:36;;;;;;;18.03;11.83;;;21.20;66.20;;;;;;4994492;28;20464;-88
2023/03/26 09:42:16;;;;;;;18.20;11.00;;;21.40;66.50;;;;;;4993745;28;21010;-91
2023/03/26 09:45:00;;;;;;;17.67;10.50;;;21.20;66.20;;;;;;4993778;28;20465;-83
2023/03/26 09:47:45;;;;;;;17.73;11.50;;;21.30;66.40;;;;;;4993880;28;20440;-83
2023/03/26 09:50:49;;;;;;;15.10;9.80;;;21.30;66.30;;;;;;4993861;28;20977;-94
2023/03/26 09:53:37;;;;;;;19.73;11.23;;;21.30;66.20;;;;;;4963524;28;20995;-94
2023/03/26 09:56:14;;;;;;;17.87;10.97;;;21.30;66.40;;;;;;4994473;28;20485;-93
2023/03/26 09:59:09;;;;;;;21.13;10.07;;;21.30;66.30;;;;;;4994517;28;20447;-84
2023/03/26 10:01:44;;;;;;;19.83;10.60;;;21.30;66.40;;;;;;4994846;28;20444;-83
2023/03/26 10:04:37;;;;;;;19.30;10.47;;;21.30;66.30;;;;;;4994227;28;20447;-84
2023/03/26 10:07:08;;;;;;;19.53;10.87;;;21.30;66.30;;;;;;4994114;28;20966;-93
2023/03/26 10:09:49;;;;;;;15.33;9.50;;;21.30;66.30;;;;;;4996510;28;20452;-89
2023/03/26 10:12:27;;;;;;;16.17;10.30;;;21.30;66.40;;;;;;4998311;28;20440;-89
2023/03/26 10:15:07;;;;;;;17.17;10.17;;;21.30;66.40;;;;;;4998137;28;20810;-84
2023/03/26 10:17:44;;;;;;;14.47;11.00;;;21.30;66.40;;;;;;5001761;28;20451;-84
2023/03/26 10:20:43;;;;;;;14.53;8.90;;;21.30;66.40;;;;;;4998907;28;20439;-84
2023/03/26 10:23:42;;;;;;;17.87;10.23;;;21.30;66.30;;;;;;5000270;28;20794;-83
2023/03/26 10:26:20;;;;;;;18.07;12.13;;;21.30;66.30;;;;;;4993792;28;20444;-83
2023/03/26 10:29:08;;;;;;;17.03;9.40;;;21.30;66.40;;;;;;4998697;28;20472;-83
2023/03/26 10:31:45;;;;;;;13.10;9.20;;;21.30;66.40;;;;;;4999287;28;20944;-87
2023/03/26 10:34:28;;;;;;;14.13;8.83;;;21.30;66.30;;;;;;4999770;28;20483;-83
2023/03/26 10:37:02;;;;;;;12.23;8.40;;;21.30;66.40;;;;;;4999316;28;20485;-83
2023/03/26 10:39:43;;;;;;;14.97;9.90;;;21.30;66.40;;;;;;4998673;28;20440;-90
2023/03/26 10:42:23;;;;;;;14.10;8.80;;;21.30;66.60;;;;;;5003078;28;20444;-84
2023/03/26 10:45:14;;;;;;;12.70;7.87;;;21.40;66.40;;;;;;4999190;28;20460;-93
2023/03/26 10:48:04;;;;;;;13.30;8.47;;;21.30;66.30;;;;;;4996241;28;20454;-83
2023/03/26 10:50:51;;;;;;;13.50;8.83;;;21.30;66.30;;;;;;4999309;28;20448;-82
2023/03/26 10:53:34;;;;;;;15.50;9.20;;;21.30;66.40;;;;;;4999719;28;20444;-92
2023/03/26 10:56:12;;;;;;;13.07;8.23;;;21.30;66.30;;;;;;4999324;28;20475;-90
2023/03/26 10:58:40;;;;;;;11.63;8.33;;;21.30;66.40;;;;;;4999236;28;20438;-84
2023/03/26 11:01:15;;;;;;;10.67;7.93;;;21.20;66.30;;;;;;5002631;28;20936;-82
2023/03/26 11:03:53;;;;;;;12.80;8.17;;;21.30;66.40;;;;;;5002875;28;20444;-83
2023/03/26 11:06:30;;;;;;;14.83;8.80;;;21.30;66.40;;;;;;5002281;28;20445;-87
2023/03/26 11:09:14;;;;;;;15.80;9.50;;;21.30;66.30;;;;;;4987029;28;20530;-86
2023/03/26 11:11:49;;;;;;;14.93;8.63;;;21.30;66.30;;;;;;5003206;28;20471;-92
2023/03/26 11:14:23;;;;;;;12.77;8.47;;;21.30;66.30;;;;;;5000913;28;20502;-86
2023/03/26 11:17:03;;;;;;;13.33;8.10;;;21.30;66.30;;;;;;5003100;28;20522;-94
2023/03/26 11:19:39;;;;;;;11.27;8.37;;;21.30;66.30;;;;;;5001329;28;20544;-83
2023/03/26 11:22:23;;;;;;;11.23;7.37;;;21.30;66.30;;;;;;5000241;28;20447;-87
2023/03/26 11:25:23;;;;;;;11.13;7.77;;;21.30;66.30;;;;;;5001422;28;20440;-84
2023/03/26 11:27:59;;;;;;;9.70;6.70;;;21.30;66.30;;;;;;5000847;28;20491;-87
2023/03/26 11:30:37;;;;;;;9.97;7.20;;;21.30;66.30;;;;;;5001836;28;20469;-94
2023/03/26 11:33:07;;;;;;;14.07;7.90;;;21.30;66.30;;;;;;5000274;28;20448;-91
2023/03/26 11:35:38;;;;;;;11.53;7.30;;;21.30;66.30;;;;;;5001036;28;20531;-85
2023/03/26 11:38:11;;;;;;;11.77;7.13;;;21.30;66.30;;;;;;5004495;28;20448;-96
2023/03/26 11:40:41;;;;;;;10.23;7.40;;;21.30;66.30;;;;;;5005144;28;20439;-87
2023/03/26 11:43:11;;;;;;;11.37;6.70;;;21.30;66.30;;;;;;5006387;28;20453;-96
2023/03/26 11:45:41;;;;;;;14.77;7.87;;;21.30;66.20;;;;;;5003365;28;20496;-86
2023/03/26 11:48:13;;;;;;;10.77;6.60;;;21.30;66.20;;;;;;5004478;28;20449;-82
2023/03/26 11:50:50;;;;;;;11.97;7.67;;;21.30;66.20;;;;;;5006074;28;20475;-84
2023/03/26 11:53:19;;;;;;;9.90;7.60;;;21.30;66.20;;;;;;5007354;28;20436;-93
2023/03/26 11:55:53;;;;;;;10.87;6.80;;;21.40;66.40;;;;;;5019754;28;20456;-84
2023/03/26 11:58:32;;;;;;;12.33;6.90;;;21.30;66.20;;;;;;5015302;28;20451;-96
2023/03/26 12:01:05;;;;;;;7.93;6.50;;;21.40;66.30;;;;;;5003465;28;20452;-84
2023/03/26 12:03:33;;;;;;;8.80;6.70;;;21.30;66.20;;;;;;5003891;28;20451;-94
2023/03/26 12:06:05;;;;;;;8.30;6.13;;;21.40;66.30;;;;;;5004710;28;20527;-86
2023/03/26 12:08:35;;;;;;;13.30;8.00;;;21.40;66.40;;;;;;5003956;28;20481;-90
2023/03/26 12:11:11;;;;;;;8.13;6.23;;;21.40;66.30;;;;;;5003716;28;20527;-88
2023/03/26 12:13:41;;;;;;;6.57;5.77;;;21.40;66.30;;;;;;5003576;28;20464;-96
2023/03/26 12:16:12;;;;;;;8.40;6.20;;;21.40;66.40;;;;;;5000597;28;20819;-96
2023/03/26 12:18:42;;;;;;;7.27;5.70;;;21.40;66.30;;;;;;4996617;28;20467;-89
2023/03/26 12:21:12;;;;;;;11.60;7.20;;;21.40;66.40;;;;;;4996731;28;20449;-96
2023/03/26 12:23:56;;;;;;;9.37;6.27;;;21.40;66.30;;;;;;4996317;28;20460;-85
2023/03/26 12:26:36;;;;;;;8.00;5.50;;;21.40;67.20;;;;;;4996851;28;20514;-85
2023/03/26 12:29:10;;;;;;;8.93;5.53;;;21.40;66.30;;;;;;4999025;28;20475;-86
2023/03/26 12:31:52;;;;;;;6.57;5.83;;;21.60;66.50;;;;;;5005897;28;20467;-96
2023/03/26 12:34:21;;;;;;;6.57;5.57;;;21.50;66.40;;;;;;4996292;28;20490;-96
2023/03/26 12:36:54;;;;;;;6.70;5.47;;;21.40;66.30;;;;;;4995828;28;20483;-95
2023/03/26 12:39:31;;;;;;;8.83;5.90;;;21.40;66.20;;;;;;4996833;28;20440;-94
2023/03/26 12:41:59;;;;;;;7.33;5.37;;;21.40;66.30;;;;;;4995664;28;20464;-96
2023/03/26 12:44:29;;;;;;;7.57;4.93;;;21.50;66.40;;;;;;4995945;28;20461;-96
2023/03/26 12:47:14;;;;;;;9.63;6.50;;;21.40;66.30;;;;;;4995488;28;20454;-83
2023/03/26 12:49:41;;;;;;;7.97;6.47;;;21.40;66.30;;;;;;4995931;28;20452;-87
2023/03/26 12:52:25;;;;;;;9.70;6.40;;;21.40;66.40;;;;;;5011571;28;20517;-84
2023/03/26 12:54:56;;;;;;;7.30;5.80;;;21.40;66.30;;;;;;5009353;28;20452;-84
2023/03/26 12:57:25;;;;;;;6.13;5.37;;;21.40;66.40;;;;;;5006551;28;20543;-81
2023/03/26 13:00:11;;;;;;;6.93;4.97;;;21.40;66.30;;;;;;5001627;28;20910;-96
2023/03/26 13:03:01;;;;;;;7.23;4.83;;;21.40;66.30;;;;;;4998157;28;20821;-90
2023/03/26 13:05:39;;;;;;;8.40;5.17;;;21.40;66.30;;;;;;4998116;28;20540;-96
2023/03/26 13:08:27;;;;;;;7.67;5.60;;;21.40;66.20;;;;;;4997483;28;20451;-86
2023/03/26 13:11:06;;;;;;;5.30;4.80;;;21.40;66.20;;;;;;4995634;28;20494;-86
2023/03/26 13:14:00;;;;;;;7.20;4.60;;;21.40;66.20;;;;;;4995406;28;20455;-89
2023/03/26 13:16:34;;;;;;;7.00;4.27;;;21.40;66.30;;;;;;4990458;28;20824;-96